createdAt,value
2022-10-22T00:01:14.085Z,100.00
2022-10-22T00:03:40.867Z,100.00
2022-10-22T00:06:07.664Z,100.00
2022-10-22T00:08:34.103Z,100.00
2022-10-22T00:11:08.291Z,100.00
2022-10-22T00:13:35.199Z,100.00
2022-10-22T00:16:01.991Z,100.00
2022-10-22T00:18:28.530Z,100.00
2022-10-22T00:20:55.166Z,100.00
2022-10-22T00:23:21.583Z,100.00
2022-10-22T00:25:48.093Z,100.00
2022-10-22T00:28:14.941Z,100.00
2022-10-22T00:30:41.528Z,100.00
2022-10-22T00:33:07.943Z,100.00
2022-10-22T00:35:34.856Z,100.00
2022-10-22T00:38:01.345Z,100.00
2022-10-22T00:40:27.949Z,100.00
2022-10-22T00:42:54.724Z,100.00
2022-10-22T00:45:30.787Z,100.00
2022-10-22T00:48:04.778Z,100.00
2022-10-22T00:50:49.523Z,100.00
2022-10-22T00:53:20.785Z,100.00
2022-10-22T00:55:52.549Z,100.00
2022-10-22T00:58:21.272Z,100.00
2022-10-22T01:00:54.604Z,100.00
2022-10-22T01:03:21.821Z,100.00
2022-10-22T01:05:55.913Z,100.00
2022-10-22T01:08:36.491Z,100.00
2022-10-22T01:11:15.113Z,100.00
2022-10-22T01:14:06.963Z,100.00
2022-10-22T01:16:42.916Z,100.00
2022-10-22T01:19:47.871Z,100.00
2022-10-22T01:22:29.353Z,100.00
2022-10-22T01:25:31.010Z,100.00
2022-10-22T01:28:19.268Z,100.00
2022-10-22T01:30:47.756Z,100.00
2022-10-22T01:33:18.777Z,100.00
2022-10-22T01:35:45.917Z,100.00
2022-10-22T01:38:20.342Z,100.00
2022-10-22T01:40:48.083Z,100.00
2022-10-22T01:43:15.184Z,100.00
2022-10-22T01:45:49.184Z,100.00
2022-10-22T01:48:44.892Z,100.00
2022-10-22T01:51:48.525Z,100.00
2022-10-22T01:54:27.802Z,100.00
2022-10-22T01:57:28.824Z,100.00
2022-10-22T01:59:58.277Z,100.00
2022-10-22T02:02:29.775Z,100.00
2022-10-22T02:05:06.895Z,100.00
2022-10-22T02:07:41.456Z,100.00
2022-10-22T02:10:09.968Z,100.00
2022-10-22T02:12:39.241Z,100.00
2022-10-22T02:15:07.602Z,100.00
2022-10-22T02:17:35.709Z,100.00
2022-10-22T02:20:08.139Z,100.00
2022-10-22T02:22:37.033Z,100.00
2022-10-22T02:25:05.702Z,100.00
2022-10-22T02:27:45.321Z,100.00
2022-10-22T02:30:18.508Z,100.00
2022-10-22T02:33:00.110Z,100.00
2022-10-22T02:35:28.968Z,100.00
2022-10-22T02:37:57.881Z,100.00
2022-10-22T02:40:25.204Z,100.00
2022-10-22T02:42:51.928Z,100.00
2022-10-22T02:45:19.979Z,100.00
2022-10-22T02:47:46.992Z,99.97
2022-10-22T02:50:13.846Z,100.00
2022-10-22T02:52:40.926Z,99.92
2022-10-22T02:55:08.233Z,100.00
2022-10-22T02:57:34.672Z,100.00
2022-10-22T03:00:01.111Z,100.00
2022-10-22T03:02:27.633Z,100.00
2022-10-22T03:04:54.180Z,100.00
2022-10-22T03:07:20.681Z,100.00
2022-10-22T03:09:47.144Z,100.00
2022-10-22T03:12:13.706Z,100.00
2022-10-22T03:14:40.208Z,100.00
2022-10-22T03:17:06.736Z,99.88
2022-10-22T03:19:33.475Z,100.00
2022-10-22T03:22:07.695Z,100.00
2022-10-22T03:24:42.488Z,100.00
2022-10-22T03:27:09.941Z,100.00
2022-10-22T03:29:39.220Z,100.00
2022-10-22T03:32:06.336Z,100.00
2022-10-22T03:34:32.914Z,99.95
2022-10-22T03:37:01.293Z,99.69
2022-10-22T03:39:31.707Z,99.42
2022-10-22T03:41:58.320Z,99.45
2022-10-22T03:44:25.056Z,99.87
2022-10-22T03:46:51.669Z,99.19
2022-10-22T03:49:18.293Z,99.30
2022-10-22T03:51:44.800Z,99.56
2022-10-22T03:54:11.319Z,99.55
2022-10-22T03:56:37.889Z,99.43
2022-10-22T03:59:04.698Z,99.89
2022-10-22T04:01:31.673Z,100.00
2022-10-22T04:04:01.030Z,99.55
2022-10-22T04:06:29.609Z,99.74
2022-10-22T04:08:56.148Z,99.60
2022-10-22T04:11:22.882Z,100.00
2022-10-22T04:13:49.291Z,99.98
2022-10-22T04:16:25.110Z,99.92
2022-10-22T04:18:54.013Z,99.65
2022-10-22T04:21:20.792Z,99.89
2022-10-22T04:23:49.327Z,99.68
2022-10-22T04:26:19.501Z,99.58
2022-10-22T04:28:47.774Z,99.83
2022-10-22T04:31:17.995Z,100.00
2022-10-22T04:33:44.698Z,99.49
2022-10-22T04:36:16.931Z,99.63
2022-10-22T04:38:45.791Z,99.60
2022-10-22T04:41:18.079Z,99.74
2022-10-22T04:43:45.062Z,99.50
2022-10-22T04:46:13.043Z,99.83
2022-10-22T04:48:41.010Z,99.82
2022-10-22T04:51:09.104Z,99.56
2022-10-22T04:53:35.761Z,99.59
2022-10-22T04:56:12.674Z,99.92
2022-10-22T04:58:39.757Z,99.94
2022-10-22T05:01:18.036Z,99.87
2022-10-22T05:03:45.180Z,99.72
2022-10-22T05:08:40.187Z,99.77
2022-10-22T05:11:14.801Z,99.79
2022-10-22T05:13:41.310Z,100.00
2022-10-22T05:16:08.222Z,99.96
2022-10-22T05:18:36.817Z,100.00
2022-10-22T05:21:05.154Z,99.86
2022-10-22T05:23:31.660Z,99.69
2022-10-22T05:26:02.399Z,99.57
2022-10-22T05:28:28.940Z,99.71
2022-10-22T05:30:57.978Z,99.63
2022-10-22T05:33:24.628Z,99.60
2022-10-22T05:35:51.984Z,99.84
2022-10-22T05:38:21.176Z,99.81
2022-10-22T05:40:47.943Z,100.00
2022-10-22T05:43:14.395Z,100.00
2022-10-22T05:45:42.247Z,100.00
2022-10-22T05:48:09.818Z,100.00
2022-10-22T05:50:37.299Z,100.00
2022-10-22T05:53:05.520Z,99.80
2022-10-22T05:55:40.570Z,99.50
2022-10-22T05:58:07.086Z,99.70
2022-10-22T06:00:34.708Z,99.25
2022-10-22T06:03:01.132Z,99.58
2022-10-22T06:15:23.491Z,99.08
2022-10-22T06:17:50.214Z,99.50
2022-10-22T06:20:16.848Z,99.71
2022-10-22T06:22:43.458Z,99.61
2022-10-22T06:25:10.267Z,99.58
2022-10-22T06:27:36.770Z,99.67
2022-10-22T06:30:03.723Z,99.68
2022-10-22T06:32:31.498Z,99.74
2022-10-22T06:34:57.905Z,99.53
2022-10-22T06:37:24.325Z,99.46
2022-10-22T06:39:50.779Z,99.43
2022-10-22T06:42:17.642Z,99.41
2022-10-22T06:44:44.080Z,99.64
2022-10-22T06:47:10.955Z,99.33
2022-10-22T06:49:37.415Z,99.55
2022-10-22T06:52:03.964Z,99.20
2022-10-22T06:54:32.214Z,99.24
2022-10-22T06:56:58.647Z,99.36
2022-10-22T06:59:25.129Z,99.09
2022-10-22T07:01:51.581Z,99.33
2022-10-22T07:04:18.190Z,98.86
2022-10-22T07:06:44.709Z,98.93
2022-10-22T07:09:11.335Z,98.79
2022-10-22T07:11:42.272Z,98.59
2022-10-22T07:14:08.971Z,98.53
2022-10-22T07:16:35.587Z,98.35
2022-10-22T07:19:03.374Z,98.21
2022-10-22T07:21:30.689Z,98.29
2022-10-22T07:23:57.458Z,98.04
2022-10-22T07:26:25.362Z,98.44
2022-10-22T07:28:51.829Z,98.43
2022-10-22T07:31:21.403Z,98.44
2022-10-22T07:33:48.001Z,98.09
2022-10-22T07:36:17.925Z,97.55
2022-10-22T07:38:47.152Z,97.65
2022-10-22T07:41:15.793Z,98.07
2022-10-22T07:43:43.117Z,97.36
2022-10-22T07:46:09.830Z,97.38
2022-10-22T07:48:36.975Z,97.26
2022-10-22T07:51:03.900Z,96.87
2022-10-22T07:53:30.408Z,97.09
2022-10-22T07:55:57.038Z,96.73
2022-10-22T07:58:24.078Z,96.90
2022-10-22T08:00:51.408Z,96.26
2022-10-22T08:03:18.725Z,96.10
2022-10-22T08:05:48.260Z,96.09
2022-10-22T08:08:16.412Z,95.88
2022-10-22T08:10:44.280Z,95.83
2022-10-22T08:13:11.313Z,96.12
2022-10-22T08:15:37.805Z,96.06
2022-10-22T08:18:07.210Z,96.31
2022-10-22T08:20:33.838Z,95.84
2022-10-22T08:23:00.520Z,95.97
2022-10-22T08:25:27.743Z,95.53
2022-10-22T08:27:54.262Z,95.72
2022-10-22T08:30:20.952Z,95.42
2022-10-22T08:32:49.360Z,95.65
2022-10-22T08:35:18.167Z,96.14
2022-10-22T08:37:44.654Z,96.01
2022-10-22T08:40:21.163Z,95.48
2022-10-22T08:43:17.023Z,95.98
2022-10-22T08:45:52.911Z,95.38
2022-10-22T08:48:39.666Z,95.35
2022-10-22T08:51:12.013Z,94.87
2022-10-22T08:54:15.722Z,95.00
2022-10-22T08:56:56.327Z,94.66
2022-10-22T08:59:33.791Z,94.71
2022-10-22T09:02:01.251Z,95.09
2022-10-22T09:04:32.647Z,95.23
2022-10-22T09:07:00.478Z,95.37
2022-10-22T09:09:33.076Z,95.55
2022-10-22T09:12:01.100Z,95.77
2022-10-22T09:14:27.579Z,95.66
2022-10-22T09:16:53.925Z,95.50
2022-10-22T09:19:33.384Z,95.75
2022-10-22T09:22:18.405Z,95.70
2022-10-22T09:24:51.167Z,95.88
2022-10-22T09:27:21.430Z,95.58
2022-10-22T09:29:49.347Z,95.38
2022-10-22T09:32:17.267Z,96.01
2022-10-22T09:34:48.326Z,95.49
2022-10-22T09:37:21.437Z,95.62
2022-10-22T09:39:52.189Z,95.66
2022-10-22T09:42:21.350Z,95.46
2022-10-22T09:44:57.332Z,94.93
2022-10-22T09:48:00.618Z,94.46
2022-10-22T09:50:49.385Z,94.42
2022-10-22T09:53:26.455Z,94.63
2022-10-22T09:58:28.225Z,94.24
2022-10-22T10:00:58.090Z,94.29
2022-10-22T10:03:28.339Z,93.65
2022-10-22T10:06:03.000Z,93.84
2022-10-22T10:08:32.491Z,93.58
2022-10-22T10:11:06.079Z,93.26
2022-10-22T10:13:51.362Z,92.85
2022-10-22T10:16:36.568Z,92.56
2022-10-22T10:19:28.107Z,92.29
2022-10-22T10:22:25.223Z,91.25
2022-10-22T10:25:14.506Z,91.42
2022-10-22T10:27:48.009Z,90.66
2022-10-22T10:30:25.849Z,90.64
2022-10-22T10:33:11.236Z,88.74
2022-10-22T10:35:55.071Z,88.80
2022-10-22T10:38:40.099Z,88.96
2022-10-22T10:41:06.744Z,88.17
2022-10-22T10:43:49.026Z,88.67
2022-10-22T10:46:39.972Z,88.20
2022-10-22T10:49:16.630Z,88.70
2022-10-22T10:51:58.254Z,88.23
2022-10-22T10:54:54.449Z,88.22
2022-10-22T10:57:33.071Z,88.21
2022-10-22T11:00:11.197Z,88.28
2022-10-22T11:02:49.218Z,88.19
2022-10-22T11:05:43.789Z,87.88
2022-10-22T11:08:17.517Z,87.89
2022-10-22T11:10:48.769Z,87.48
2022-10-22T11:13:22.570Z,88.70
2022-10-22T11:15:57.403Z,86.89
2022-10-22T11:18:37.734Z,87.24
2022-10-22T11:21:10.855Z,87.16
2022-10-22T11:24:03.850Z,88.00
2022-10-22T11:27:00.790Z,86.25
2022-10-22T11:29:49.811Z,84.71
2022-10-22T11:32:20.889Z,85.48
2022-10-22T11:34:54.229Z,85.73
2022-10-22T11:37:24.339Z,87.39
2022-10-22T11:39:53.993Z,85.95
2022-10-22T11:42:21.168Z,84.77
2022-10-22T11:45:02.176Z,83.41
2022-10-22T11:47:33.754Z,82.89
2022-10-22T11:50:21.676Z,82.42
2022-10-22T11:53:01.154Z,79.74
2022-10-22T11:55:48.274Z,78.77
2022-10-22T11:58:39.464Z,80.01
2022-10-22T12:01:08.960Z,76.25
2022-10-22T12:03:35.346Z,75.82
2022-10-22T12:06:04.790Z,76.13
2022-10-22T12:08:33.254Z,74.72
2022-10-22T12:11:12.010Z,74.47
2022-10-22T12:14:12.639Z,74.30
2022-10-22T12:17:02.637Z,75.95
2022-10-22T12:19:49.471Z,74.61
2022-10-22T12:22:33.918Z,75.69
2022-10-22T12:25:02.805Z,77.14
2022-10-22T12:27:38.928Z,76.32
2022-10-22T12:30:24.978Z,74.94
2022-10-22T12:33:02.957Z,76.33
2022-10-22T12:35:31.852Z,77.22
2022-10-22T12:38:08.247Z,75.22
2022-10-22T12:40:37.847Z,75.51
2022-10-22T12:43:19.627Z,76.12
2022-10-22T12:45:48.641Z,76.83
2022-10-22T12:48:29.549Z,75.13
2022-10-22T12:50:59.533Z,75.45
2022-10-22T12:53:31.797Z,75.41
2022-10-22T12:56:03.241Z,72.54
2022-10-22T12:58:41.043Z,74.92
2022-10-22T13:01:10.553Z,74.11
2022-10-22T13:03:42.479Z,74.51
2022-10-22T13:06:25.863Z,74.10
2022-10-22T13:09:01.504Z,74.91
2022-10-22T13:11:34.367Z,75.53
2022-10-22T13:14:05.905Z,73.57
2022-10-22T13:16:33.140Z,73.00
2022-10-22T13:18:59.899Z,72.23
2022-10-22T13:21:26.460Z,74.13
2022-10-22T13:24:18.663Z,73.56
2022-10-22T13:26:50.352Z,73.29
2022-10-22T13:29:19.469Z,75.19
2022-10-22T13:31:48.379Z,74.11
2022-10-22T13:34:19.510Z,74.63
2022-10-22T13:36:46.159Z,72.14
2022-10-22T13:39:23.790Z,73.17
2022-10-22T13:41:51.329Z,70.78
2022-10-22T13:44:20.891Z,70.96
2022-10-22T13:46:48.411Z,72.80
2022-10-22T13:49:20.760Z,72.20
2022-10-22T13:51:47.604Z,73.23
2022-10-22T13:54:24.047Z,71.14
2022-10-22T13:56:50.618Z,71.49
2022-10-22T13:59:19.701Z,69.74
2022-10-22T14:01:49.439Z,71.48
2022-10-22T14:04:15.908Z,71.97
2022-10-22T14:06:42.826Z,70.51
2022-10-22T14:09:13.963Z,70.62
2022-10-22T14:11:40.725Z,70.76
2022-10-22T14:14:09.091Z,70.22
2022-10-22T14:16:37.616Z,70.86
2022-10-22T14:19:07.231Z,71.34
2022-10-22T14:21:36.318Z,72.21
2022-10-22T14:24:02.956Z,70.86
2022-10-22T14:26:33.014Z,72.73
2022-10-22T14:29:09.863Z,71.73
2022-10-22T14:31:41.852Z,72.57
2022-10-22T14:34:11.540Z,72.90
2022-10-22T14:36:38.094Z,72.84
2022-10-22T14:39:04.569Z,72.42
2022-10-22T14:41:31.758Z,72.72
2022-10-22T14:43:59.670Z,75.05
2022-10-22T14:46:26.026Z,76.56
2022-10-22T14:48:52.400Z,74.50
2022-10-22T14:51:21.331Z,73.78
2022-10-22T14:53:48.116Z,74.54
2022-10-22T14:56:17.374Z,72.74
2022-10-22T14:58:44.138Z,73.77
2022-10-22T15:01:10.643Z,72.57
2022-10-22T15:03:37.210Z,72.63
2022-10-22T15:06:03.854Z,74.14
2022-10-22T15:08:30.621Z,73.60
2022-10-22T15:11:03.682Z,73.93
2022-10-22T15:13:31.619Z,74.05
2022-10-22T15:15:58.362Z,73.72
2022-10-22T15:18:25.778Z,73.64
2022-10-22T15:21:17.769Z,73.40
2022-10-22T15:23:44.322Z,77.20
2022-10-22T15:26:13.131Z,76.19
2022-10-22T15:28:40.540Z,77.13
2022-10-22T15:31:07.558Z,75.59
2022-10-22T15:33:34.581Z,75.89
2022-10-22T15:36:19.243Z,75.70
2022-10-22T15:38:45.942Z,75.58
2022-10-22T15:41:13.373Z,75.51
2022-10-22T15:43:39.970Z,75.53
2022-10-22T15:46:20.446Z,75.51
2022-10-22T15:48:46.908Z,75.79
2022-10-22T15:51:19.179Z,76.76
2022-10-22T15:53:52.498Z,77.32
2022-10-22T15:56:19.724Z,77.63
2022-10-22T15:58:46.200Z,77.14
2022-10-22T16:01:14.405Z,78.28
2022-10-22T16:03:41.583Z,80.36
2022-10-22T16:06:09.408Z,79.59
2022-10-22T16:08:36.102Z,80.80
2022-10-22T16:11:02.748Z,81.04
2022-10-22T16:13:29.251Z,82.61
2022-10-22T16:15:55.698Z,82.30
2022-10-22T16:18:23.845Z,83.42
2022-10-22T16:20:50.669Z,84.49
2022-10-22T16:23:18.961Z,84.95
2022-10-22T16:25:46.337Z,85.21
2022-10-22T16:28:13.554Z,85.54
2022-10-22T16:30:44.611Z,85.36
2022-10-22T16:33:11.827Z,85.91
2022-10-22T16:35:42.379Z,86.17
2022-10-22T16:38:10.656Z,86.18
2022-10-22T16:40:37.099Z,86.92
2022-10-22T16:43:03.615Z,87.18
2022-10-22T16:45:30.070Z,87.75
2022-10-22T16:47:56.538Z,87.68
2022-10-22T16:50:22.954Z,88.24
2022-10-22T16:52:50.698Z,87.88
2022-10-22T16:55:17.385Z,87.96
2022-10-22T16:57:44.143Z,88.80
2022-10-22T17:00:13.398Z,88.85
2022-10-22T17:02:40.215Z,88.75
2022-10-22T17:05:07.209Z,89.58
2022-10-22T17:07:36.303Z,89.63
2022-10-22T17:10:03.488Z,89.47
2022-10-22T17:12:35.185Z,89.60
2022-10-22T17:15:04.148Z,89.88
2022-10-22T17:17:30.892Z,90.00
2022-10-22T17:19:57.587Z,90.21
2022-10-22T17:22:24.434Z,90.23
2022-10-22T17:25:22.038Z,90.36
2022-10-22T17:27:50.132Z,90.38
2022-10-22T17:30:19.212Z,90.54
2022-10-22T17:32:47.261Z,90.42
2022-10-22T17:35:16.418Z,90.03
2022-10-22T17:37:44.691Z,90.78
2022-10-22T17:40:11.841Z,91.05
2022-10-22T17:42:38.453Z,90.79
2022-10-22T17:45:05.725Z,91.32
2022-10-22T17:47:32.172Z,91.46
2022-10-22T17:50:02.428Z,90.84
2022-10-22T17:52:28.949Z,91.38
2022-10-22T17:54:55.796Z,91.33
2022-10-22T17:57:22.523Z,91.42
2022-10-22T17:59:49.032Z,91.31
2022-10-22T18:02:17.448Z,91.33
2022-10-22T18:04:44.072Z,91.29
2022-10-22T18:07:10.631Z,91.87
2022-10-22T18:09:37.478Z,91.59
2022-10-22T18:12:05.702Z,92.28
2022-10-22T18:14:32.153Z,92.79
2022-10-22T18:17:02.620Z,92.43
2022-10-22T18:19:29.843Z,92.82
2022-10-22T18:21:56.322Z,93.05
2022-10-22T18:24:23.077Z,92.30
2022-10-22T18:26:50.139Z,92.61
2022-10-22T18:29:18.427Z,92.81
2022-10-22T18:31:45.988Z,93.16
2022-10-22T18:34:12.528Z,93.25
2022-10-22T18:36:40.413Z,93.50
2022-10-22T18:39:07.360Z,93.67
2022-10-22T18:41:34.279Z,94.12
2022-10-22T18:44:03.371Z,93.90
2022-10-22T18:46:30.931Z,94.27
2022-10-22T18:48:58.882Z,94.23
2022-10-22T18:51:33.002Z,94.10
2022-10-22T18:54:11.645Z,94.47
2022-10-22T18:56:46.439Z,95.48
2022-10-22T18:59:20.100Z,96.14
2022-10-22T19:01:47.397Z,95.98
2022-10-22T19:04:14.152Z,96.22
2022-10-22T19:06:44.480Z,96.63
2022-10-22T19:09:13.578Z,97.14
2022-10-22T19:11:42.686Z,97.18
2022-10-22T19:14:09.224Z,96.84
2022-10-22T19:16:39.923Z,96.29
2022-10-22T19:19:08.018Z,96.28
2022-10-22T19:21:34.397Z,96.24
2022-10-22T19:24:01.934Z,97.05
2022-10-22T19:26:30.035Z,96.59
2022-10-22T19:28:57.534Z,97.45
2022-10-22T19:31:26.006Z,97.45
2022-10-22T19:33:55.660Z,97.45
2022-10-22T19:36:24.466Z,97.37
2022-10-22T19:38:51.756Z,97.17
2022-10-22T19:41:20.847Z,96.94
2022-10-22T19:43:52.657Z,97.18
2022-10-22T19:46:20.431Z,97.00
2022-10-22T19:48:51.256Z,97.34
2022-10-22T19:51:27.079Z,97.81
2022-10-22T19:54:01.190Z,98.23
2022-10-22T19:56:28.618Z,97.95
2022-10-22T19:58:55.194Z,97.58
2022-10-22T20:01:21.723Z,98.40
2022-10-22T20:09:23.834Z,98.35
2022-10-22T20:12:58.328Z,98.26
2022-10-22T20:20:39.689Z,98.49
2022-10-22T20:24:20.359Z,98.96
2022-10-22T20:31:23.604Z,99.64
2022-10-22T20:35:04.827Z,100.00
2022-10-22T20:37:29.832Z,100.00
2022-10-22T20:39:56.467Z,99.82
2022-10-22T20:42:22.928Z,100.00
2022-10-22T20:44:49.362Z,100.00
2022-10-22T20:47:30.400Z,100.00
2022-10-22T20:50:06.260Z,100.00
2022-10-22T20:52:35.888Z,100.00
2022-10-22T20:55:02.430Z,100.00
2022-10-22T20:57:41.899Z,100.00
2022-10-22T21:00:12.446Z,100.00
2022-10-22T21:02:38.884Z,99.42
2022-10-22T21:16:06.039Z,100.00
2022-10-22T21:18:57.562Z,100.00
2022-10-22T21:21:26.581Z,100.00
2022-10-22T21:25:01.900Z,100.00
2022-10-22T21:27:43.705Z,100.00
2022-10-22T21:30:16.886Z,100.00
2022-10-22T21:32:56.232Z,100.00
2022-10-22T21:38:57.052Z,100.00
2022-10-22T21:41:27.369Z,100.00
2022-10-22T21:43:53.904Z,100.00
2022-10-22T21:46:25.647Z,100.00
2022-10-22T21:49:03.169Z,100.00
2022-10-22T21:51:32.430Z,100.00
2022-10-22T21:53:59.112Z,100.00
2022-10-22T21:56:28.586Z,100.00
2022-10-22T21:58:55.874Z,100.00
2022-10-22T22:01:22.995Z,100.00
2022-10-22T22:03:50.686Z,100.00
2022-10-22T22:06:21.410Z,100.00
2022-10-22T22:08:50.554Z,100.00
2022-10-22T22:11:22.877Z,100.00
2022-10-22T22:13:50.528Z,100.00
2022-10-22T22:16:27.072Z,100.00
2022-10-22T22:18:55.195Z,100.00
2022-10-22T22:21:21.973Z,100.00
2022-10-22T22:23:50.077Z,100.00
2022-10-22T22:26:18.599Z,100.00
2022-10-22T22:28:45.130Z,100.00
2022-10-22T22:31:22.033Z,100.00
2022-10-22T22:33:48.833Z,100.00
2022-10-22T22:36:15.272Z,100.00
2022-10-22T22:38:42.004Z,100.00
2022-10-22T22:41:09.218Z,100.00
2022-10-22T22:43:36.402Z,100.00
2022-10-22T22:46:09.866Z,100.00
2022-10-22T22:48:36.743Z,100.00
2022-10-22T22:51:04.793Z,100.00
2022-10-22T22:53:32.347Z,100.00
2022-10-22T22:56:04.339Z,100.00
2022-10-22T22:58:30.927Z,100.00
2022-10-22T23:01:15.280Z,100.00
2022-10-22T23:03:42.578Z,100.00
2022-10-22T23:06:09.555Z,100.00
2022-10-22T23:08:36.335Z,100.00
2022-10-22T23:11:10.860Z,100.00
2022-10-22T23:13:38.275Z,100.00
2022-10-22T23:16:07.086Z,100.00
2022-10-22T23:18:33.582Z,100.00
2022-10-22T23:21:03.756Z,100.00
2022-10-22T23:23:30.865Z,100.00
2022-10-22T23:28:28.827Z,100.00
2022-10-22T23:30:56.479Z,100.00
2022-10-22T23:33:22.903Z,100.00
2022-10-22T23:35:49.543Z,100.00
2022-10-22T23:38:16.148Z,100.00
2022-10-22T23:40:42.526Z,100.00
2022-10-22T23:43:09.047Z,100.00
2022-10-22T23:45:35.583Z,100.00
2022-10-22T23:48:02.373Z,100.00
2022-10-22T23:50:28.865Z,100.00
2022-10-22T23:52:55.308Z,100.00
2022-10-22T23:55:21.715Z,100.00
2022-10-22T23:57:48.338Z,100.00
